首页
METAR-TAF:

METAR-TAF

机场 :

伊拉克利翁尼科斯·卡赞察基斯国际机场

伊拉克利翁, 希腊

纬度: 35-20N, 经度: 025-11E, 海拔: 37米

当前天气观测

该预报发布于32分钟前的07:50 UTC
风速12节,风向
温度 23°C
湿度 69%
气压 1018 hPa
能见度10公里或以上
少量云层高于2000英尺

METAR: LGIR 200750Z 17012KT 9999 FEW020 23/17 Q1018 NOSIG

时间: 10:22 (08:22 UTC)

预报

该预报发布于3小时和22分钟前的05:00 UTC
预报有效从20日的 06点(UTC)到 21日的 06点(UTC)
风速15节,风向
能见度10公里或以上
少量云层高于2000英尺
短暂存在
从 20日的 09点(UTC)到 20日的 20点(UTC)
风速17节,风向,有时为27节阵风

TAF: LGIR 200500Z 2006/2106 18015KT 9999 FEW020 TEMPO 2009/2020 18017G27KT

超过4000个机场的气象观测和天气预报(METAR&TAF报告)。

可查询的气象台以黄色和红色小点在地图上表示。

将鼠标移到小点上方,可查看气象台名称。

然后点击查看天气观测和预报。

如需切换地图:点击带黑十字的绿色按钮放大地图;点击带横线的绿色按钮缩小地图;或者点击绿色箭头查看邻近地区的地图。


METAR-TAF: